createdAt,value
2022-12-01T00:01:10.118Z,36.90
2022-12-01T00:03:37.179Z,35.33
2022-12-01T00:06:07.027Z,40.85
2022-12-01T00:08:34.459Z,31.42
2022-12-01T00:11:09.916Z,33.38
2022-12-01T00:13:36.927Z,40.65
2022-12-01T00:16:14.499Z,35.85
2022-12-01T00:18:41.683Z,35.63
2022-12-01T00:21:20.264Z,37.33
2022-12-01T00:23:49.378Z,35.80
2022-12-01T00:26:17.354Z,38.13
2022-12-01T00:28:44.297Z,36.47
2022-12-01T00:31:12.735Z,36.47
2022-12-01T00:33:39.615Z,38.22
2022-12-01T00:36:07.539Z,34.40
2022-12-01T00:38:34.879Z,36.80
2022-12-01T00:41:02.183Z,40.20
2022-12-01T00:43:28.858Z,38.92
2022-12-01T00:45:56.498Z,37.58
2022-12-01T00:48:23.577Z,37.60
2022-12-01T00:50:54.945Z,36.30
2022-12-01T00:53:21.693Z,40.80
2022-12-01T00:55:48.352Z,47.05
2022-12-01T00:58:15.189Z,35.35
2022-12-01T01:00:43.006Z,37.97
2022-12-01T01:03:10.473Z,42.17
2022-12-01T01:05:39.371Z,42.47
2022-12-01T01:08:10.921Z,45.00
2022-12-01T01:10:42.329Z,37.78
2022-12-01T01:13:09.382Z,39.40
2022-12-01T01:15:36.431Z,39.58
2022-12-01T01:18:03.741Z,41.80
2022-12-01T01:20:30.522Z,36.30
2022-12-01T01:22:57.166Z,41.05
2022-12-01T01:25:24.494Z,44.17
2022-12-01T01:27:51.206Z,41.17
2022-12-01T01:30:18.232Z,40.28
2022-12-01T01:32:44.933Z,38.90
2022-12-01T01:35:11.684Z,38.53
2022-12-01T01:37:38.457Z,34.85
2022-12-01T01:40:06.003Z,39.92
2022-12-01T01:42:32.643Z,39.55
2022-12-01T01:44:59.591Z,38.38
2022-12-01T01:47:34.996Z,34.05
2022-12-01T01:50:06.560Z,40.08
2022-12-01T01:52:46.060Z,35.75
2022-12-01T01:55:13.604Z,32.65
2022-12-01T01:57:40.653Z,36.05
2022-12-01T02:00:14.049Z,38.13
2022-12-01T02:02:45.508Z,35.88
2022-12-01T02:05:19.478Z,36.72
2022-12-01T02:07:47.523Z,34.10
2022-12-01T02:10:22.378Z,37.00
2022-12-01T02:13:00.785Z,39.92
2022-12-01T02:15:51.627Z,37.20
2022-12-01T02:18:30.604Z,38.50
2022-12-01T02:21:10.425Z,39.05
2022-12-01T02:24:13.398Z,40.45
2022-12-01T02:27:04.889Z,39.72
2022-12-01T02:29:54.692Z,39.05
2022-12-01T02:32:42.472Z,40.33
2022-12-01T02:35:32.962Z,37.90
2022-12-01T02:38:23.910Z,37.83
2022-12-01T02:41:11.558Z,40.10
2022-12-01T02:43:50.810Z,40.13
2022-12-01T02:46:47.480Z,39.40
2022-12-01T02:49:18.441Z,43.42
2022-12-01T02:51:45.727Z,38.55
2022-12-01T02:54:14.572Z,45.35
2022-12-01T02:56:44.718Z,41.90
2022-12-01T02:59:13.200Z,42.97
2022-12-01T03:01:46.335Z,45.38
2022-12-01T03:04:35.826Z,46.53
2022-12-01T03:07:10.899Z,45.30
2022-12-01T03:10:15.270Z,47.95
2022-12-01T03:12:59.313Z,42.55
2022-12-01T03:15:37.883Z,41.83
2022-12-01T03:18:23.212Z,52.40
2022-12-01T03:20:57.420Z,43.60
2022-12-01T03:23:28.649Z,40.53
2022-12-01T03:25:59.079Z,45.28
2022-12-01T03:28:33.487Z,43.35
2022-12-01T03:33:35.428Z,39.13
2022-12-01T03:36:24.732Z,41.38
2022-12-01T03:39:00.186Z,47.33
2022-12-01T03:41:35.299Z,43.53
2022-12-01T03:44:19.242Z,39.88
2022-12-01T03:46:46.158Z,44.73
2022-12-01T03:49:15.020Z,42.03
2022-12-01T03:52:12.138Z,39.33
2022-12-01T03:55:09.009Z,38.35
2022-12-01T03:57:46.140Z,39.05
2022-12-01T04:00:15.004Z,40.70
2022-12-01T04:02:41.909Z,48.13
2022-12-01T04:05:09.303Z,40.30
2022-12-01T04:07:37.328Z,39.33
2022-12-01T04:10:05.316Z,43.30
2022-12-01T04:12:35.044Z,44.00
2022-12-01T04:15:10.159Z,42.85
2022-12-01T04:17:37.345Z,36.90
2022-12-01T04:20:06.479Z,41.28
2022-12-01T04:22:33.900Z,40.55
2022-12-01T04:25:00.531Z,39.97
2022-12-01T04:27:27.321Z,43.65
2022-12-01T04:29:53.940Z,39.53
2022-12-01T04:32:20.518Z,40.22
2022-12-01T04:34:47.248Z,36.95
2022-12-01T04:37:13.879Z,35.83
2022-12-01T04:39:42.112Z,38.20
2022-12-01T04:42:09.682Z,36.38
2022-12-01T04:44:36.997Z,36.50
2022-12-01T04:47:05.287Z,36.72
2022-12-01T04:49:32.675Z,39.83
2022-12-01T04:51:59.454Z,41.40
2022-12-01T04:54:26.184Z,37.47
2022-12-01T04:56:52.865Z,40.45
2022-12-01T04:59:19.664Z,36.70
2022-12-01T05:01:48.139Z,35.80
2022-12-01T05:04:15.660Z,37.58
2022-12-01T05:06:42.516Z,42.28
2022-12-01T05:09:17.076Z,36.72
2022-12-01T05:11:44.363Z,36.33
2022-12-01T05:14:11.005Z,36.38
2022-12-01T05:16:37.923Z,40.85
2022-12-01T05:19:24.761Z,39.42
2022-12-01T05:21:52.066Z,41.22
2022-12-01T05:24:19.900Z,34.90
2022-12-01T05:26:46.770Z,38.53
2022-12-01T05:29:14.190Z,39.88
2022-12-01T05:31:41.184Z,38.28
2022-12-01T05:34:08.445Z,42.08
2022-12-01T05:36:35.205Z,36.33
2022-12-01T05:39:01.990Z,35.47
2022-12-01T05:41:28.632Z,38.97
2022-12-01T05:43:55.392Z,37.00
2022-12-01T05:46:22.221Z,40.00
2022-12-01T05:48:48.876Z,38.00
2022-12-01T05:51:17.690Z,36.17
2022-12-01T05:53:45.059Z,37.03
2022-12-01T05:56:12.155Z,33.45
2022-12-01T05:58:38.910Z,35.38
2022-12-01T06:01:06.108Z,37.03
2022-12-01T06:03:32.764Z,36.88
2022-12-01T06:05:59.398Z,36.97
2022-12-01T06:08:26.168Z,39.15
2022-12-01T06:10:52.767Z,35.47
2022-12-01T06:13:19.461Z,40.85
2022-12-01T06:15:46.103Z,46.22
2022-12-01T06:18:12.760Z,39.05
2022-12-01T06:20:39.444Z,42.70
2022-12-01T06:23:06.130Z,39.90
2022-12-01T06:25:32.742Z,42.38
2022-12-01T06:27:59.732Z,41.92
2022-12-01T06:30:26.701Z,40.65
2022-12-01T06:32:53.513Z,40.92
2022-12-01T06:35:20.636Z,41.40
2022-12-01T06:37:47.463Z,37.17
2022-12-01T06:40:14.382Z,36.20
2022-12-01T06:42:41.235Z,37.97
2022-12-01T06:45:08.373Z,36.45
2022-12-01T06:47:35.082Z,42.63
2022-12-01T06:50:02.407Z,41.38
2022-12-01T06:52:29.210Z,39.85
2022-12-01T06:54:55.818Z,38.35
2022-12-01T06:57:22.759Z,39.33
2022-12-01T06:59:49.664Z,35.03
2022-12-01T07:02:17.176Z,36.08
2022-12-01T07:04:43.944Z,35.40
2022-12-01T07:07:12.007Z,38.00
2022-12-01T07:09:39.191Z,44.00
2022-12-01T07:12:06.438Z,31.10
2022-12-01T07:14:33.152Z,34.25
2022-12-01T07:16:59.945Z,38.00
2022-12-01T07:19:26.752Z,37.45
2022-12-01T07:21:53.436Z,33.92
2022-12-01T07:24:20.372Z,36.45
2022-12-01T07:26:48.145Z,34.25
2022-12-01T07:29:15.269Z,37.22
2022-12-01T07:31:41.906Z,37.13
2022-12-01T07:34:11.536Z,40.42
2022-12-01T07:36:38.193Z,35.03
2022-12-01T07:39:07.535Z,40.08
2022-12-01T07:41:35.209Z,37.80
2022-12-01T07:44:02.255Z,39.90
2022-12-01T07:46:29.184Z,36.17
2022-12-01T07:48:57.004Z,38.40
2022-12-01T07:51:25.229Z,43.95
2022-12-01T07:53:53.772Z,35.08
2022-12-01T07:56:21.343Z,43.75
2022-12-01T07:58:48.154Z,38.53
2022-12-01T08:01:17.425Z,41.65
2022-12-01T08:03:44.834Z,38.97
2022-12-01T08:06:12.247Z,44.58
2022-12-01T08:08:40.769Z,43.83
2022-12-01T08:11:15.276Z,45.30
2022-12-01T08:13:42.736Z,44.50
2022-12-01T08:16:16.357Z,46.40
2022-12-01T08:18:43.739Z,47.20
2022-12-01T08:21:14.112Z,43.83
2022-12-01T08:23:42.092Z,40.35
2022-12-01T08:26:12.974Z,43.42
2022-12-01T08:28:39.890Z,46.35
2022-12-01T08:31:29.465Z,45.35
2022-12-01T08:33:56.687Z,50.40
2022-12-01T08:36:24.580Z,50.80
2022-12-01T08:38:54.749Z,52.72
2022-12-01T08:41:21.911Z,43.65
2022-12-01T08:44:03.989Z,46.92
2022-12-01T08:46:35.673Z,53.22
2022-12-01T08:49:04.834Z,61.88
2022-12-01T08:51:32.092Z,63.95
2022-12-01T08:53:59.873Z,52.92
2022-12-01T08:56:36.167Z,62.08
2022-12-01T08:59:03.626Z,60.83
2022-12-01T09:01:30.476Z,61.00
2022-12-01T09:04:08.842Z,65.50
2022-12-01T09:06:40.907Z,66.53
2022-12-01T09:09:09.718Z,54.72
2022-12-01T09:11:36.912Z,61.55
2022-12-01T09:14:03.775Z,60.97
2022-12-01T09:16:30.756Z,60.17
2022-12-01T09:18:57.591Z,61.35
2022-12-01T09:21:30.623Z,60.97
2022-12-01T09:23:57.972Z,64.75
2022-12-01T09:26:25.303Z,65.20
2022-12-01T09:28:57.199Z,62.70
2022-12-01T09:31:24.665Z,67.00
2022-12-01T09:34:02.358Z,64.68
2022-12-01T09:36:31.385Z,62.97
2022-12-01T09:38:59.011Z,62.25
2022-12-01T09:41:43.851Z,61.08
2022-12-01T09:44:14.049Z,61.58
2022-12-01T09:46:58.530Z,65.10
2022-12-01T09:49:55.356Z,56.58
2022-12-01T09:52:25.131Z,53.63
2022-12-01T09:54:54.546Z,47.75
2022-12-01T09:57:24.181Z,58.25
2022-12-01T09:59:52.104Z,67.40
2022-12-01T10:02:24.927Z,56.92
2022-12-01T10:04:55.861Z,57.78
2022-12-01T10:07:24.630Z,57.90
2022-12-01T10:10:42.393Z,63.60
2022-12-01T10:13:29.277Z,60.58
2022-12-01T10:16:10.798Z,65.30
2022-12-01T10:19:05.978Z,66.43
2022-12-01T10:21:38.360Z,60.92
2022-12-01T10:24:29.692Z,66.40
2022-12-01T10:27:23.258Z,60.17
2022-12-01T10:30:06.981Z,62.10
2022-12-01T10:32:55.228Z,59.97
2022-12-01T10:35:37.559Z,62.03
2022-12-01T10:38:12.528Z,58.95
2022-12-01T10:40:40.601Z,60.03
2022-12-01T10:43:10.621Z,73.60
2022-12-01T10:45:43.952Z,64.05
2022-12-01T10:48:21.014Z,60.40
2022-12-01T10:50:51.445Z,55.28
2022-12-01T10:53:24.263Z,58.70
2022-12-01T10:56:03.837Z,55.90
2022-12-01T10:58:42.394Z,60.67
2022-12-01T11:01:20.467Z,55.45
2022-12-01T11:04:13.094Z,67.13
2022-12-01T11:06:39.867Z,52.13
2022-12-01T11:09:26.373Z,56.50
2022-12-01T11:12:04.621Z,52.53
2022-12-01T11:14:45.850Z,52.60
2022-12-01T11:17:22.426Z,57.38
2022-12-01T11:19:49.534Z,57.45
2022-12-01T11:22:29.047Z,55.30
2022-12-01T11:24:57.196Z,60.70
2022-12-01T11:27:27.302Z,53.28
2022-12-01T11:30:02.765Z,51.40
2022-12-01T11:32:32.604Z,54.95
2022-12-01T11:35:21.238Z,53.80
2022-12-01T11:38:20.980Z,51.35
2022-12-01T11:40:51.220Z,55.97
2022-12-01T11:43:33.066Z,51.13
2022-12-01T11:46:03.796Z,54.92
2022-12-01T11:48:34.462Z,58.03
2022-12-01T11:51:07.615Z,53.70
2022-12-01T11:53:36.736Z,51.60
2022-12-01T11:56:17.746Z,50.80
2022-12-01T11:58:46.423Z,51.13
2022-12-01T12:01:50.594Z,49.25
2022-12-01T12:04:29.402Z,50.05
2022-12-01T12:07:10.067Z,48.30
2022-12-01T12:09:45.844Z,49.60
2022-12-01T12:12:21.425Z,48.67
2022-12-01T12:15:13.886Z,46.80
2022-12-01T12:17:40.672Z,44.40
2022-12-01T12:20:18.552Z,49.65
2022-12-01T12:23:08.682Z,53.05
2022-12-01T12:25:54.502Z,45.75
2022-12-01T12:28:52.227Z,46.53
2022-12-01T12:31:31.010Z,45.70
2022-12-01T12:34:23.785Z,38.80
2022-12-01T12:37:13.058Z,43.60
2022-12-01T12:40:08.167Z,44.80
2022-12-01T12:45:19.430Z,41.00
2022-12-01T12:47:48.884Z,38.85
2022-12-01T12:50:32.093Z,38.83
2022-12-01T12:53:04.154Z,41.47
2022-12-01T12:55:38.541Z,42.80
2022-12-01T13:00:49.509Z,43.38
2022-12-01T13:03:41.389Z,39.85
2022-12-01T13:06:17.754Z,49.00
2022-12-01T13:08:52.992Z,42.67
2022-12-01T13:11:36.001Z,46.25
2022-12-01T13:14:17.068Z,44.72
2022-12-01T13:16:47.753Z,39.50
2022-12-01T13:19:20.599Z,45.38
2022-12-01T13:21:50.103Z,41.50
2022-12-01T13:24:23.285Z,43.17
2022-12-01T13:26:58.414Z,40.35
2022-12-01T13:29:26.959Z,38.60
2022-12-01T13:31:55.095Z,45.72
2022-12-01T13:34:36.693Z,35.45
2022-12-01T13:37:03.498Z,40.05
2022-12-01T13:39:35.675Z,37.78
2022-12-01T13:42:08.718Z,39.33
2022-12-01T13:44:44.772Z,38.50
2022-12-01T13:47:11.371Z,35.72
2022-12-01T13:49:50.332Z,35.45
2022-12-01T13:52:23.425Z,33.67
2022-12-01T13:55:08.127Z,39.38
2022-12-01T13:57:58.101Z,36.88
2022-12-01T14:00:32.115Z,39.22
2022-12-01T14:03:19.390Z,37.50
2022-12-01T14:06:08.845Z,34.75
2022-12-01T14:08:47.989Z,43.03
2022-12-01T14:11:20.763Z,37.45
2022-12-01T14:13:53.615Z,37.58
2022-12-01T14:16:20.911Z,37.97
2022-12-01T14:18:54.604Z,39.30
2022-12-01T14:21:45.530Z,37.95
2022-12-01T14:24:36.630Z,39.05
2022-12-01T14:27:05.583Z,36.17
2022-12-01T14:29:33.581Z,40.35
2022-12-01T14:32:00.348Z,37.28
2022-12-01T14:34:31.451Z,37.05
2022-12-01T14:37:06.623Z,38.95
2022-12-01T14:39:37.083Z,31.42
2022-12-01T14:42:54.426Z,37.58
2022-12-01T14:45:31.948Z,37.88
2022-12-01T14:48:04.817Z,36.92
2022-12-01T14:50:46.190Z,39.35
2022-12-01T14:53:30.938Z,36.75
2022-12-01T14:56:01.685Z,34.10
2022-12-01T14:58:30.786Z,36.05
2022-12-01T15:01:08.476Z,37.33
2022-12-01T15:03:43.362Z,32.03
2022-12-01T15:06:16.074Z,33.85
2022-12-01T15:08:53.189Z,37.47
2022-12-01T15:11:30.317Z,33.28
2022-12-01T15:13:58.279Z,38.72
2022-12-01T15:16:32.307Z,48.15
2022-12-01T15:18:59.140Z,40.17
2022-12-01T15:21:29.208Z,39.92
2022-12-01T15:24:05.242Z,36.45
2022-12-01T15:26:46.487Z,32.90
2022-12-01T15:29:20.994Z,34.58
2022-12-01T15:31:50.931Z,37.45
2022-12-01T15:34:40.027Z,33.28
2022-12-01T15:37:13.792Z,32.95
2022-12-01T15:39:49.847Z,34.15
2022-12-01T15:42:28.500Z,31.88
2022-12-01T15:45:16.031Z,32.17
2022-12-01T15:47:45.970Z,30.08
2022-12-01T15:50:33.623Z,35.97
2022-12-01T15:53:06.004Z,32.97
2022-12-01T15:55:36.378Z,28.88
2022-12-01T15:58:07.809Z,30.70
2022-12-01T16:00:35.142Z,30.80
2022-12-01T16:03:02.435Z,36.20
2022-12-01T16:05:34.716Z,33.97
2022-12-01T16:08:19.409Z,39.33
2022-12-01T16:13:35.373Z,31.00
2022-12-01T16:16:33.392Z,31.33
2022-12-01T16:19:05.533Z,31.02
2022-12-01T16:21:42.134Z,32.72
2022-12-01T16:24:37.132Z,31.40
2022-12-01T16:27:22.075Z,37.70
2022-12-01T16:29:51.929Z,31.85
2022-12-01T16:32:23.705Z,33.22
2022-12-01T16:34:52.574Z,30.45
2022-12-01T16:37:21.501Z,33.55
2022-12-01T16:39:48.781Z,34.40
2022-12-01T16:42:17.622Z,32.85
2022-12-01T16:44:45.571Z,33.28
2022-12-01T16:47:14.758Z,33.13
2022-12-01T16:49:41.691Z,38.97
2022-12-01T16:52:36.564Z,35.78
2022-12-01T16:54:55.314Z,34.38
2022-12-01T16:57:21.878Z,29.42
2022-12-01T16:59:48.528Z,32.58
2022-12-01T17:02:15.407Z,39.92
2022-12-01T17:04:42.097Z,38.22
2022-12-01T17:07:08.736Z,47.42
2022-12-01T17:09:35.926Z,33.70
2022-12-01T17:12:02.551Z,36.50
2022-12-01T17:14:29.637Z,41.45
2022-12-01T17:16:58.696Z,35.33
2022-12-01T17:19:25.363Z,34.50
2022-12-01T17:21:52.931Z,34.92
2022-12-01T17:24:19.580Z,36.47
2022-12-01T17:26:46.244Z,35.03
2022-12-01T17:29:12.841Z,34.85
2022-12-01T17:31:39.663Z,32.55
2022-12-01T17:34:06.256Z,32.97
2022-12-01T17:36:32.892Z,34.38
2022-12-01T17:38:59.732Z,37.10
2022-12-01T17:41:32.198Z,39.33
2022-12-01T17:44:01.369Z,33.97
2022-12-01T17:46:28.064Z,32.10
2022-12-01T17:48:54.846Z,35.47
2022-12-01T17:51:21.937Z,30.38
2022-12-01T17:53:48.723Z,35.15
2022-12-01T17:56:17.317Z,33.63
2022-12-01T17:58:44.219Z,35.90
2022-12-01T18:01:17.892Z,30.23
2022-12-01T18:03:45.074Z,30.70
2022-12-01T18:06:12.526Z,30.45
2022-12-01T18:08:39.886Z,32.03
2022-12-01T18:11:08.628Z,34.00
2022-12-01T18:13:40.055Z,33.83
2022-12-01T18:16:08.881Z,33.67
2022-12-01T18:18:37.533Z,34.88
2022-12-01T18:21:09.290Z,32.72
2022-12-01T18:23:36.453Z,33.03
2022-12-01T18:26:15.939Z,35.17
2022-12-01T18:28:43.477Z,36.15
2022-12-01T18:31:14.343Z,38.00
2022-12-01T18:33:43.315Z,39.17
2022-12-01T18:36:13.577Z,35.88
2022-12-01T18:38:40.888Z,35.78
2022-12-01T18:41:08.221Z,33.85
2022-12-01T18:43:36.299Z,33.65
2022-12-01T18:46:04.889Z,31.02
2022-12-01T18:48:31.911Z,36.05
2022-12-01T18:51:06.818Z,36.90
2022-12-01T18:53:34.625Z,40.92
2022-12-01T18:56:03.346Z,38.25
2022-12-01T18:58:30.975Z,37.38
2022-12-01T19:00:58.207Z,33.30
2022-12-01T19:03:25.236Z,43.15
2022-12-01T19:05:52.050Z,42.80
2022-12-01T19:08:18.944Z,35.55
2022-12-01T19:10:45.617Z,39.38
2022-12-01T19:13:12.419Z,39.50
2022-12-01T19:15:39.186Z,42.55
2022-12-01T19:18:05.869Z,41.20
2022-12-01T19:20:32.654Z,41.45
2022-12-01T19:22:59.817Z,43.50
2022-12-01T19:25:26.493Z,44.22
2022-12-01T19:27:53.407Z,39.95
2022-12-01T19:30:20.193Z,43.58
2022-12-01T19:32:46.832Z,41.33
2022-12-01T19:35:13.689Z,41.03
2022-12-01T19:37:40.441Z,43.35
2022-12-01T19:40:07.939Z,45.15
2022-12-01T19:42:34.746Z,46.40
2022-12-01T19:45:01.346Z,45.85
2022-12-01T19:47:32.241Z,42.90
2022-12-01T19:49:59.047Z,46.80
2022-12-01T19:52:25.963Z,42.40
2022-12-01T19:54:53.166Z,44.83
2022-12-01T19:57:19.995Z,44.72
2022-12-01T19:59:46.825Z,39.90
2022-12-01T20:02:13.624Z,45.10
2022-12-01T20:04:40.851Z,43.95
2022-12-01T20:07:07.711Z,41.30
2022-12-01T20:09:34.464Z,42.53
2022-12-01T20:12:01.241Z,41.53
2022-12-01T20:14:28.096Z,48.58
2022-12-01T20:16:55.792Z,44.22
2022-12-01T20:19:22.582Z,45.33
2022-12-01T20:21:50.061Z,43.50
2022-12-01T20:24:19.889Z,45.33
2022-12-01T20:26:50.698Z,46.05
2022-12-01T20:29:24.186Z,44.15
2022-12-01T20:31:52.822Z,42.53
2022-12-01T20:34:23.369Z,45.42
2022-12-01T20:36:50.136Z,43.90
2022-12-01T20:39:17.017Z,41.33
2022-12-01T20:41:44.413Z,45.53
2022-12-01T20:44:13.743Z,41.08
2022-12-01T20:46:45.368Z,44.35
2022-12-01T20:49:13.333Z,48.78
2022-12-01T20:51:40.589Z,46.22
2022-12-01T20:56:56.272Z,43.95
2022-12-01T20:59:23.125Z,43.38
2022-12-01T21:01:50.004Z,43.95
2022-12-01T21:04:17.329Z,45.40
2022-12-01T21:06:44.443Z,46.88
2022-12-01T21:09:12.432Z,50.42
2022-12-01T21:12:08.894Z,46.65
2022-12-01T21:14:58.595Z,44.03
2022-12-01T21:17:37.363Z,44.17
2022-12-01T21:20:21.914Z,44.38
2022-12-01T21:22:50.127Z,45.55
2022-12-01T21:25:24.275Z,46.05
2022-12-01T21:27:51.381Z,50.67
2022-12-01T21:30:29.400Z,42.92
2022-12-01T21:33:11.934Z,45.47
2022-12-01T21:35:38.721Z,46.15
2022-12-01T21:38:12.832Z,46.95
2022-12-01T21:40:46.642Z,49.80
2022-12-01T21:43:24.576Z,42.10
2022-12-01T21:46:15.501Z,50.00
2022-12-01T21:48:43.372Z,50.55
2022-12-01T21:51:23.665Z,56.97
2022-12-01T21:53:56.140Z,57.10
2022-12-01T21:56:26.607Z,56.90
2022-12-01T21:58:56.917Z,47.88
2022-12-01T22:01:27.872Z,52.63
2022-12-01T22:04:02.490Z,47.70
2022-12-01T22:06:38.019Z,51.28
2022-12-01T22:09:16.562Z,46.92
2022-12-01T22:11:47.216Z,47.58
2022-12-01T22:14:23.648Z,55.38
2022-12-01T22:16:55.889Z,54.38
2022-12-01T22:19:27.675Z,48.33
2022-12-01T22:22:09.412Z,44.25
2022-12-01T22:24:42.335Z,49.88
2022-12-01T22:27:11.869Z,48.80
2022-12-01T22:29:49.034Z,48.28
